createdAt,value
2023-06-07T00:00:56.669Z,98987.97
2023-06-07T00:03:23.230Z,98976.56
2023-06-07T00:05:49.968Z,98980.06
2023-06-07T00:08:16.372Z,98983.34
2023-06-07T00:10:43.155Z,98980.63
2023-06-07T00:13:10.072Z,98976.03
2023-06-07T00:15:37.645Z,98979.69
2023-06-07T00:18:04.262Z,98975.63
2023-06-07T00:20:30.755Z,98974.63
2023-06-07T00:22:57.275Z,98972.97
2023-06-07T00:25:23.661Z,98979.28
2023-06-07T00:27:50.096Z,98978.59
2023-06-07T00:30:16.596Z,98985.34
2023-06-07T00:32:43.193Z,98979.72
2023-06-07T00:35:09.681Z,98979.44
2023-06-07T00:37:36.095Z,98982.66
2023-06-07T00:40:02.827Z,98978.88
2023-06-07T00:42:29.607Z,98978.03
2023-06-07T00:44:56.189Z,98982.22
2023-06-07T00:47:22.575Z,98983.06
2023-06-07T00:49:49.402Z,98980.25
2023-06-07T00:52:16.101Z,98981.09
2023-06-07T00:54:43.553Z,98974.78
2023-06-07T00:57:10.005Z,98979.97
2023-06-07T00:59:36.465Z,98983.34
2023-06-07T01:02:03.212Z,98979.97
2023-06-07T01:04:29.682Z,98976.59
2023-06-07T01:06:56.146Z,98975.91
2023-06-07T01:09:22.550Z,98974.22
2023-06-07T01:11:48.972Z,98968.75
2023-06-07T01:14:15.371Z,98968.31
2023-06-07T01:16:41.893Z,98972.28
2023-06-07T01:19:08.449Z,98966.78
2023-06-07T01:21:36.838Z,98968.75
2023-06-07T01:24:03.349Z,98974.78
2023-06-07T01:26:29.810Z,98970.16
2023-06-07T01:28:56.228Z,98969.88
2023-06-07T01:31:22.663Z,98964.53
2023-06-07T01:33:49.334Z,98975.91
2023-06-07T01:36:16.047Z,98967.75
2023-06-07T01:38:42.493Z,98961.56
2023-06-07T01:41:09.045Z,98963.25
2023-06-07T01:43:35.497Z,98969.59
2023-06-07T01:46:02.022Z,98963.13
2023-06-07T01:48:28.726Z,98956.41
2023-06-07T01:50:55.166Z,98962.00
2023-06-07T01:53:21.681Z,98967.78
2023-06-07T01:55:48.212Z,98961.56
2023-06-07T01:58:15.953Z,98965.81
2023-06-07T02:00:42.376Z,98964.13
2023-06-07T02:03:08.925Z,98962.16
2023-06-07T02:05:35.402Z,98959.34
2023-06-07T02:08:01.774Z,98958.63
2023-06-07T02:10:28.180Z,98956.81
2023-06-07T02:12:54.668Z,98946.28
2023-06-07T02:15:28.390Z,98952.59
2023-06-07T02:17:54.926Z,98946.56
2023-06-07T02:20:21.418Z,98953.44
2023-06-07T02:22:47.904Z,98941.06
2023-06-07T02:25:14.277Z,98943.19
2023-06-07T02:27:40.726Z,98955.41
2023-06-07T02:30:07.271Z,98938.69
2023-06-07T02:32:34.012Z,98945.84
2023-06-07T02:35:00.573Z,98936.72
2023-06-07T02:37:26.984Z,98934.75
2023-06-07T02:39:53.423Z,98936.44
2023-06-07T02:42:19.796Z,98935.59
2023-06-07T02:44:46.269Z,98932.50
2023-06-07T02:47:12.777Z,98938.69
2023-06-07T02:49:39.485Z,98936.88
2023-06-07T02:52:06.333Z,98942.91
2023-06-07T02:54:32.708Z,98939.81
2023-06-07T02:56:59.260Z,98942.91
2023-06-07T02:59:25.692Z,98942.22
2023-06-07T03:01:53.352Z,98936.75
2023-06-07T03:04:19.837Z,98944.59
2023-06-07T03:06:46.366Z,98940.22
2023-06-07T03:09:12.753Z,98947.97
2023-06-07T03:11:39.212Z,98943.84
2023-06-07T03:14:05.642Z,98942.44
2023-06-07T03:16:32.000Z,98945.69
2023-06-07T03:18:58.428Z,98949.56
2023-06-07T03:21:24.824Z,98945.31
2023-06-07T03:23:51.608Z,98949.72
2023-06-07T03:26:18.105Z,98943.16
2023-06-07T03:28:44.575Z,98946.09
2023-06-07T03:31:11.058Z,98950.69
2023-06-07T03:33:37.606Z,98952.84
2023-06-07T03:36:04.147Z,98952.78
2023-06-07T03:38:30.500Z,98950.66
2023-06-07T03:40:57.333Z,98958.84
2023-06-07T03:43:23.877Z,98955.59
2023-06-07T03:45:50.370Z,98963.38
2023-06-07T03:48:16.912Z,98958.88
2023-06-07T03:50:43.357Z,98959.72
2023-06-07T03:53:09.767Z,98956.66
2023-06-07T03:55:36.202Z,98962.16
2023-06-07T03:58:02.594Z,98953.84
2023-06-07T04:00:30.389Z,98957.66
2023-06-07T04:02:57.025Z,98954.00
2023-06-07T04:05:27.022Z,98952.13
2023-06-07T04:07:54.379Z,98958.13
2023-06-07T04:10:20.854Z,98955.97
2023-06-07T04:12:47.294Z,98949.28
2023-06-07T04:15:13.718Z,98955.81
2023-06-07T04:17:40.354Z,98954.47
2023-06-07T04:20:06.782Z,98958.75
2023-06-07T04:22:33.203Z,98965.75
2023-06-07T04:25:00.321Z,98965.34
2023-06-07T04:27:26.726Z,98971.13
2023-06-07T04:29:53.226Z,98967.41
2023-06-07T04:32:19.825Z,98970.53
2023-06-07T04:34:46.603Z,98963.78
2023-06-07T04:37:13.063Z,98964.28
2023-06-07T04:39:39.406Z,98964.91
2023-06-07T04:42:05.884Z,98971.94
2023-06-07T04:44:32.390Z,98969.44
2023-06-07T04:47:04.808Z,98966.34
2023-06-07T04:49:34.800Z,98961.31
2023-06-07T04:52:01.273Z,98970.13
2023-06-07T04:54:28.012Z,98970.53
2023-06-07T04:56:54.415Z,98978.31
2023-06-07T04:59:21.020Z,98979.09
2023-06-07T05:01:47.494Z,98971.41
2023-06-07T05:04:13.958Z,98980.97
2023-06-07T05:06:40.376Z,98980.09
2023-06-07T05:09:06.884Z,98979.00
2023-06-07T05:11:33.289Z,98989.72
2023-06-07T05:13:59.688Z,98985.56
2023-06-07T05:16:26.386Z,98985.84
2023-06-07T05:18:52.905Z,98986.31
2023-06-07T05:21:19.382Z,98993.09
2023-06-07T05:23:46.205Z,98987.53
2023-06-07T05:26:13.055Z,98995.38
2023-06-07T05:28:39.536Z,98992.84
2023-06-07T05:31:10.390Z,98996.19
2023-06-07T05:33:41.005Z,98993.78
2023-06-07T05:36:07.385Z,98993.78
2023-06-07T05:38:34.466Z,98990.28
2023-06-07T05:41:00.867Z,98981.06
2023-06-07T05:43:27.357Z,98991.31
2023-06-07T05:45:53.804Z,98991.38
2023-06-07T05:48:20.173Z,98996.44
2023-06-07T05:50:48.775Z,98988.88
2023-06-07T05:53:15.232Z,98992.25
2023-06-07T05:55:41.684Z,98999.41
2023-06-07T05:58:08.119Z,99000.94
2023-06-07T06:00:34.542Z,98999.00
2023-06-07T06:03:03.357Z,99006.75
2023-06-07T06:05:30.280Z,99005.81
2023-06-07T06:07:56.764Z,99012.41
2023-06-07T06:10:23.124Z,99014.00
2023-06-07T06:12:49.595Z,99017.06
2023-06-07T06:15:16.063Z,99009.66
2023-06-07T06:17:42.687Z,99015.38
2023-06-07T06:20:09.127Z,99015.66
2023-06-07T06:22:35.507Z,99013.13
2023-06-07T06:25:01.971Z,99021.75
2023-06-07T06:27:28.427Z,99023.22
2023-06-07T06:29:54.883Z,99023.84
2023-06-07T06:32:23.423Z,99018.53
2023-06-07T06:34:50.022Z,99026.09
2023-06-07T06:37:16.477Z,99027.75
2023-06-07T06:39:42.920Z,99022.09
2023-06-07T06:42:10.506Z,99027.59
2023-06-07T06:44:37.226Z,99020.19
2023-06-07T06:47:04.184Z,99025.53
2023-06-07T06:49:30.691Z,99028.47
2023-06-07T06:51:57.173Z,99026.09
2023-06-07T06:54:23.793Z,99034.25
2023-06-07T06:56:50.204Z,99034.69
2023-06-07T06:59:16.626Z,99033.16
2023-06-07T07:01:43.145Z,99030.31
2023-06-07T07:04:09.683Z,99039.84
2023-06-07T07:06:36.638Z,99036.03
2023-06-07T07:09:03.091Z,99048.22
2023-06-07T07:11:31.700Z,99047.97
2023-06-07T07:13:58.374Z,99050.88
2023-06-07T07:16:25.072Z,99049.56
2023-06-07T07:18:51.504Z,99058.09
2023-06-07T07:21:17.919Z,99054.13
2023-06-07T07:23:44.457Z,99061.94
2023-06-07T07:26:10.895Z,99060.09
2023-06-07T07:28:37.285Z,99063.41
2023-06-07T07:31:03.768Z,99064.25
2023-06-07T07:33:30.188Z,99063.81
2023-06-07T07:35:56.839Z,99071.22
2023-06-07T07:38:23.275Z,99061.50
2023-06-07T07:40:49.729Z,99064.03
2023-06-07T07:43:18.889Z,99068.81
2023-06-07T07:45:45.434Z,99067.09
2023-06-07T07:48:12.964Z,99067.56
2023-06-07T07:50:39.447Z,99069.34
2023-06-07T07:53:05.881Z,99070.19
2023-06-07T07:55:32.320Z,99073.31
2023-06-07T07:57:58.714Z,99069.09
2023-06-07T08:00:25.340Z,99069.69
2023-06-07T08:02:51.811Z,99070.44
2023-06-07T08:05:18.558Z,99065.13
2023-06-07T08:07:45.314Z,99070.94
2023-06-07T08:10:11.756Z,99076.84
2023-06-07T08:12:38.177Z,99064.34
2023-06-07T08:15:04.615Z,99062.59
2023-06-07T08:17:31.255Z,99071.97
2023-06-07T08:19:58.671Z,99064.84
2023-06-07T08:22:25.345Z,99066.59
2023-06-07T08:24:51.737Z,99064.94
2023-06-07T08:27:18.144Z,99063.72
2023-06-07T08:29:44.738Z,99066.69
2023-06-07T08:32:11.507Z,99067.66
2023-06-07T08:34:37.940Z,99063.41
2023-06-07T08:37:04.510Z,99065.56
2023-06-07T08:39:30.972Z,99063.94
2023-06-07T08:41:57.382Z,99058.13
2023-06-07T08:44:23.831Z,99065.31
2023-06-07T08:46:50.486Z,99058.72
2023-06-07T08:49:17.045Z,99064.91
2023-06-07T08:51:43.561Z,99064.03
2023-06-07T08:54:10.045Z,99054.59
2023-06-07T08:56:36.668Z,99062.81
2023-06-07T08:59:03.088Z,99064.31
2023-06-07T09:01:32.201Z,99063.44
2023-06-07T09:03:59.074Z,99065.44
2023-06-07T09:06:25.553Z,99065.75
2023-06-07T09:08:52.107Z,99068.09
2023-06-07T09:11:18.724Z,99069.97
2023-06-07T09:13:45.151Z,99067.97
2023-06-07T09:16:12.073Z,99061.19
2023-06-07T09:18:38.596Z,99060.78
2023-06-07T09:21:05.298Z,99068.22
2023-06-07T09:23:32.148Z,99059.66
2023-06-07T09:25:58.655Z,99080.34
2023-06-07T09:28:25.131Z,99070.50
2023-06-07T09:30:51.545Z,99067.34
2023-06-07T09:33:18.087Z,99070.19
2023-06-07T09:35:44.541Z,99072.47
2023-06-07T09:38:11.100Z,99069.66
2023-06-07T09:40:37.694Z,99079.97
2023-06-07T09:43:04.290Z,99075.69
2023-06-07T09:45:31.081Z,99068.78
2023-06-07T09:47:57.633Z,99065.13
2023-06-07T09:50:24.076Z,99074.41
2023-06-07T09:52:50.811Z,99058.09
2023-06-07T09:55:19.162Z,99051.59
2023-06-07T09:57:46.947Z,99053.06
2023-06-07T10:00:13.351Z,99057.59
2023-06-07T10:02:39.841Z,99048.81
2023-06-07T10:05:06.644Z,99048.75
2023-06-07T10:07:33.511Z,99048.59
2023-06-07T10:10:00.001Z,99056.41
2023-06-07T10:12:26.725Z,99052.72
2023-06-07T10:14:53.486Z,99042.34
2023-06-07T10:17:20.104Z,99043.56
2023-06-07T10:19:46.745Z,99044.31
2023-06-07T10:22:13.169Z,99031.84
2023-06-07T10:24:39.570Z,99033.34
2023-06-07T10:27:06.009Z,99037.50
2023-06-07T10:29:32.377Z,99037.72
2023-06-07T10:31:59.233Z,99034.59
2023-06-07T10:34:26.086Z,99030.84
2023-06-07T10:36:52.703Z,99026.16
2023-06-07T10:39:19.729Z,99024.63
2023-06-07T10:41:46.201Z,99024.78
2023-06-07T10:44:12.776Z,99020.75
2023-06-07T10:46:39.412Z,99025.25
2023-06-07T10:49:06.954Z,99018.34
2023-06-07T10:51:33.415Z,99027.44
2023-06-07T10:54:00.141Z,99027.09
2023-06-07T10:56:26.690Z,99016.06
2023-06-07T10:58:53.110Z,99009.19
2023-06-07T11:01:19.876Z,99019.44
2023-06-07T11:03:46.654Z,99019.34
2023-06-07T11:06:13.135Z,99010.50
2023-06-07T11:08:39.625Z,99015.69
2023-06-07T11:11:06.309Z,99018.38
2023-06-07T11:13:33.061Z,99019.59
2023-06-07T11:15:59.637Z,99014.31
2023-06-07T11:18:26.419Z,99020.00
2023-06-07T11:20:53.707Z,99015.56
2023-06-07T11:23:20.277Z,99014.28
2023-06-07T11:25:46.991Z,99015.78
2023-06-07T11:28:13.378Z,99021.66
2023-06-07T11:30:55.214Z,99027.84
2023-06-07T11:33:21.857Z,99018.13
2023-06-07T11:35:48.498Z,99004.91
2023-06-07T11:38:15.103Z,99003.81
2023-06-07T11:40:41.569Z,99003.81
2023-06-07T11:43:08.104Z,99007.13
2023-06-07T11:45:34.760Z,98996.84
2023-06-07T11:48:01.234Z,98998.84
2023-06-07T11:50:27.748Z,98996.91
2023-06-07T11:52:54.189Z,99001.84
2023-06-07T11:55:20.593Z,99004.19
2023-06-07T11:57:47.003Z,98995.97
2023-06-07T12:00:13.361Z,98994.47
2023-06-07T12:02:40.734Z,98994.00
2023-06-07T12:05:07.116Z,98998.09
2023-06-07T12:07:33.558Z,98990.16
2023-06-07T12:10:00.272Z,98984.19
2023-06-07T12:12:31.187Z,98984.69
2023-06-07T12:14:57.863Z,98982.31
2023-06-07T12:17:24.516Z,98987.63
2023-06-07T12:19:51.327Z,98979.75
2023-06-07T12:22:17.849Z,98979.78
2023-06-07T12:24:44.263Z,98977.06
2023-06-07T12:27:10.750Z,98975.78
2023-06-07T12:29:37.212Z,98970.09
2023-06-07T12:32:03.781Z,98973.41
2023-06-07T12:34:30.269Z,98977.56
2023-06-07T12:36:56.840Z,98972.00
2023-06-07T12:39:23.565Z,98971.44
2023-06-07T12:41:50.051Z,98971.44
2023-06-07T12:44:16.540Z,98975.47
2023-06-07T12:46:43.112Z,98974.69
2023-06-07T12:49:09.728Z,98979.25
2023-06-07T12:51:36.182Z,98980.06
2023-06-07T12:54:02.724Z,98975.56
2023-06-07T12:56:29.212Z,98979.56
2023-06-07T12:58:55.756Z,98975.53
2023-06-07T13:01:22.296Z,98971.81
2023-06-07T13:03:48.875Z,98974.88
2023-06-07T13:06:15.615Z,98968.31
2023-06-07T13:08:42.169Z,98963.72
2023-06-07T13:11:08.612Z,98969.16
2023-06-07T13:13:35.056Z,98966.44
2023-06-07T13:16:03.482Z,98966.13
2023-06-07T13:18:30.134Z,98960.59
2023-06-07T13:20:56.787Z,98966.47
2023-06-07T13:23:23.149Z,98970.84
2023-06-07T13:25:50.044Z,98957.94
2023-06-07T13:28:18.505Z,98952.22
2023-06-07T13:30:46.958Z,98946.19
2023-06-07T13:33:13.494Z,98948.00
2023-06-07T13:35:40.127Z,98941.88
2023-06-07T13:38:06.491Z,98948.69
2023-06-07T13:40:33.038Z,98935.28
2023-06-07T13:42:59.511Z,98938.03
2023-06-07T13:45:26.119Z,98951.44
2023-06-07T13:47:52.657Z,98929.88
2023-06-07T13:50:19.198Z,98931.19
2023-06-07T13:52:45.724Z,98934.81
2023-06-07T13:55:12.309Z,98936.31
2023-06-07T13:57:38.706Z,98933.25
2023-06-07T14:00:05.846Z,98936.09
2023-06-07T14:02:32.678Z,98939.13
2023-06-07T14:05:02.161Z,98937.63
2023-06-07T14:07:29.433Z,98935.03
2023-06-07T14:09:55.876Z,98941.38
2023-06-07T14:12:22.394Z,98941.28
2023-06-07T14:14:49.097Z,98942.56
2023-06-07T14:17:15.513Z,98932.97
2023-06-07T14:19:41.939Z,98934.66
2023-06-07T14:22:08.384Z,98937.13
2023-06-07T14:24:35.022Z,98934.63
2023-06-07T14:27:01.530Z,98936.09
2023-06-07T14:29:28.481Z,98939.22
2023-06-07T14:31:54.874Z,98939.28
2023-06-07T14:34:21.359Z,98940.22
2023-06-07T14:36:47.897Z,98931.03
2023-06-07T14:39:14.365Z,98940.59
2023-06-07T14:41:40.787Z,98940.91
2023-06-07T14:44:07.203Z,98943.28
2023-06-07T14:46:33.639Z,98937.56
2023-06-07T14:49:00.035Z,98942.78
2023-06-07T14:51:27.248Z,98948.00
2023-06-07T14:53:53.725Z,98956.72
2023-06-07T14:56:20.625Z,98960.41
2023-06-07T14:58:47.226Z,98971.69
2023-06-07T15:01:13.919Z,98968.63
2023-06-07T15:03:40.591Z,98972.22
2023-06-07T15:06:07.059Z,98970.16
2023-06-07T15:08:33.432Z,98966.44
2023-06-07T15:10:59.869Z,98979.63
2023-06-07T15:13:26.292Z,98968.44
2023-06-07T15:15:52.878Z,98967.19
2023-06-07T15:18:19.476Z,98969.13
2023-06-07T15:20:45.876Z,98958.31
2023-06-07T15:23:12.534Z,98954.03
2023-06-07T15:25:39.056Z,98957.66
2023-06-07T15:28:05.529Z,98953.88
2023-06-07T15:30:31.933Z,98970.22
2023-06-07T15:32:58.452Z,98982.19
2023-06-07T15:35:24.915Z,98981.66
2023-06-07T15:37:51.303Z,98976.63
2023-06-07T15:40:18.734Z,98971.16
2023-06-07T15:42:45.142Z,98956.56
2023-06-07T15:45:11.608Z,98951.31
2023-06-07T15:47:38.076Z,98948.63
2023-06-07T15:50:05.256Z,98949.81
2023-06-07T15:52:32.034Z,98958.75
2023-06-07T15:54:58.573Z,98950.91
2023-06-07T15:57:25.081Z,98941.81
2023-06-07T15:59:51.486Z,98932.66
2023-06-07T16:02:17.962Z,98934.06
2023-06-07T16:04:44.636Z,98933.81
2023-06-07T16:07:11.091Z,98940.31
2023-06-07T16:09:37.488Z,98942.81
2023-06-07T16:12:03.914Z,98940.47
2023-06-07T16:14:30.492Z,98936.94
2023-06-07T16:16:57.019Z,98946.19
2023-06-07T16:19:31.083Z,98938.75
2023-06-07T16:21:57.530Z,98944.97
2023-06-07T16:24:24.308Z,98938.56
2023-06-07T16:26:50.697Z,98945.19
2023-06-07T16:29:17.119Z,98939.22
2023-06-07T16:31:43.625Z,98941.19
2023-06-07T16:34:10.122Z,98935.00
2023-06-07T16:36:36.584Z,98942.16
2023-06-07T16:39:03.016Z,98942.41
2023-06-07T16:41:29.457Z,98937.53
2023-06-07T16:43:55.965Z,98944.66
2023-06-07T16:46:22.522Z,98937.56
2023-06-07T16:48:49.031Z,98941.00
2023-06-07T16:51:15.468Z,98943.88
2023-06-07T16:53:41.897Z,98937.28
2023-06-07T16:56:08.296Z,98945.06
2023-06-07T16:58:34.685Z,98942.44
2023-06-07T17:01:01.131Z,98937.16
2023-06-07T17:03:27.994Z,98948.66
2023-06-07T17:05:54.624Z,98934.16
2023-06-07T17:08:21.061Z,98942.13
2023-06-07T17:10:47.468Z,98936.91
2023-06-07T17:13:13.856Z,98930.88
2023-06-07T17:15:40.295Z,98921.81
2023-06-07T17:18:06.773Z,98929.53
2023-06-07T17:20:33.256Z,98927.00
2023-06-07T17:22:59.803Z,98928.88
2023-06-07T17:25:26.372Z,98937.78
2023-06-07T17:27:52.788Z,98945.69
2023-06-07T17:30:21.379Z,98945.03
2023-06-07T17:32:47.804Z,98942.34
2023-06-07T17:35:14.376Z,98941.38
2023-06-07T17:37:40.851Z,98947.78
2023-06-07T17:40:07.853Z,98947.94
2023-06-07T17:42:34.531Z,98952.00
2023-06-07T17:45:01.028Z,98948.97
2023-06-07T17:47:27.490Z,98948.47
2023-06-07T17:49:54.084Z,98962.34
2023-06-07T17:52:22.996Z,98958.28
2023-06-07T17:54:50.262Z,98955.25
2023-06-07T17:57:16.997Z,98951.72
2023-06-07T17:59:43.418Z,98954.59
2023-06-07T18:02:09.914Z,98953.63
2023-06-07T18:04:36.363Z,98961.56
2023-06-07T18:07:03.770Z,98950.88
2023-06-07T18:09:30.474Z,98956.72
2023-06-07T18:11:57.030Z,98962.94
2023-06-07T18:14:23.624Z,98964.47
2023-06-07T18:16:50.078Z,98967.81
2023-06-07T18:19:16.523Z,98958.06
2023-06-07T18:21:42.946Z,98960.41
2023-06-07T18:24:09.460Z,98962.25
2023-06-07T18:26:36.092Z,98955.19
2023-06-07T18:29:02.529Z,98962.59
2023-06-07T18:31:29.058Z,98958.44
2023-06-07T18:33:55.590Z,98956.72
2023-06-07T18:36:22.505Z,98953.00
2023-06-07T18:38:48.908Z,98950.69
2023-06-07T18:41:15.664Z,98954.03
2023-06-07T18:43:42.210Z,98951.34
2023-06-07T18:46:09.125Z,98950.34
2023-06-07T18:48:35.697Z,98947.66
2023-06-07T18:51:02.324Z,98947.66
2023-06-07T18:53:28.717Z,98946.97
2023-06-07T18:55:55.422Z,98941.78
2023-06-07T18:58:23.509Z,98944.63
2023-06-07T19:00:50.826Z,98944.63
2023-06-07T19:03:17.478Z,98954.72
2023-06-07T19:05:44.033Z,98957.72
2023-06-07T19:08:10.457Z,98950.34
2023-06-07T19:10:36.913Z,98954.75
2023-06-07T19:13:03.310Z,98963.13
2023-06-07T19:15:29.744Z,98966.78
2023-06-07T19:17:56.398Z,98967.47
2023-06-07T19:20:23.064Z,98974.50
2023-06-07T19:22:49.599Z,98975.00
2023-06-07T19:25:16.305Z,98978.00
2023-06-07T19:27:42.954Z,98989.25
2023-06-07T19:30:09.900Z,98984.88
2023-06-07T19:32:36.487Z,98995.00
2023-06-07T19:35:05.270Z,98995.78
2023-06-07T19:37:31.943Z,98996.94
2023-06-07T19:39:58.474Z,98995.59
2023-06-07T19:42:24.940Z,98998.28
2023-06-07T19:44:51.461Z,98995.44
2023-06-07T19:47:17.939Z,98988.38
2023-06-07T19:49:44.469Z,98983.75
2023-06-07T19:52:11.201Z,98986.44
2023-06-07T19:54:37.710Z,98986.78
2023-06-07T19:57:04.562Z,98982.94
2023-06-07T19:59:30.981Z,98975.25
2023-06-07T20:01:57.439Z,98975.94
2023-06-07T20:04:24.100Z,98977.16
2023-06-07T20:06:50.572Z,98989.22
2023-06-07T20:09:16.998Z,98979.31
2023-06-07T20:11:43.634Z,98988.53
2023-06-07T20:14:10.116Z,98983.63
2023-06-07T20:16:36.985Z,98984.78
2023-06-07T20:19:03.494Z,98992.81
2023-06-07T20:21:31.231Z,98992.16
2023-06-07T20:23:57.627Z,98992.31
2023-06-07T20:26:24.112Z,98998.88
2023-06-07T20:28:50.869Z,98991.50
2023-06-07T20:31:19.550Z,98992.84
2023-06-07T20:33:48.098Z,98999.16
2023-06-07T20:36:16.432Z,98994.19
2023-06-07T20:38:43.609Z,98997.19
2023-06-07T20:41:10.747Z,98997.88
2023-06-07T20:43:38.007Z,98993.75
2023-06-07T20:46:05.250Z,98989.59
2023-06-07T20:48:32.260Z,98992.81
2023-06-07T20:50:59.442Z,98997.88
2023-06-07T20:53:26.666Z,98993.84
2023-06-07T20:55:53.968Z,98997.25
2023-06-07T20:58:22.074Z,98992.81
2023-06-07T21:00:48.875Z,98998.13
2023-06-07T21:03:15.543Z,98993.84
2023-06-07T21:05:42.342Z,98997.16
2023-06-07T21:08:08.733Z,98996.66
2023-06-07T21:10:36.043Z,98993.16
2023-06-07T21:13:02.682Z,98990.16
2023-06-07T21:15:29.102Z,98999.56
2023-06-07T21:17:55.588Z,98992.81
2023-06-07T21:20:23.095Z,99001.63
2023-06-07T21:22:49.718Z,98997.72
2023-06-07T21:25:16.204Z,99005.34
2023-06-07T21:27:42.987Z,99000.94
2023-06-07T21:30:09.738Z,99005.25
2023-06-07T21:32:36.702Z,99007.97
2023-06-07T21:35:03.130Z,99007.41
2023-06-07T21:37:30.158Z,99009.44
2023-06-07T21:39:56.736Z,99007.25
2023-06-07T21:42:23.284Z,99019.53
2023-06-07T21:44:49.707Z,99012.19
2023-06-07T21:47:16.273Z,99008.66
2023-06-07T21:49:42.683Z,99008.25
2023-06-07T21:52:09.876Z,99008.47
2023-06-07T21:54:36.251Z,99004.69
2023-06-07T21:57:03.092Z,98997.19
2023-06-07T21:59:29.764Z,98993.97
2023-06-07T22:01:56.273Z,98987.16
2023-06-07T22:04:22.712Z,98983.09
2023-06-07T22:06:49.223Z,98982.47
2023-06-07T22:09:15.674Z,98981.56
2023-06-07T22:11:42.625Z,98980.25
2023-06-07T22:14:09.249Z,98969.41
2023-06-07T22:16:35.681Z,98967.81
2023-06-07T22:19:02.724Z,98967.88
2023-06-07T22:21:29.702Z,98964.56
2023-06-07T22:23:56.173Z,98961.56
2023-06-07T22:26:22.898Z,98964.66
2023-06-07T22:28:49.413Z,98958.78
2023-06-07T22:31:16.131Z,98957.47
2023-06-07T22:33:42.597Z,98958.84
2023-06-07T22:36:10.012Z,98953.53
2023-06-07T22:38:37.744Z,98960.41
2023-06-07T22:41:04.682Z,98959.28
2023-06-07T22:43:31.179Z,98955.63
2023-06-07T22:45:58.535Z,98959.28
2023-06-07T22:48:25.067Z,98951.94
2023-06-07T22:50:51.602Z,98959.28
2023-06-07T22:53:20.218Z,98955.47
2023-06-07T22:55:46.714Z,98957.22
2023-06-07T22:58:13.675Z,98958.06
2023-06-07T23:00:40.096Z,98960.00
2023-06-07T23:03:08.027Z,98956.47
2023-06-07T23:05:34.899Z,98954.25
2023-06-07T23:08:01.374Z,98951.91
2023-06-07T23:10:31.753Z,98951.81
2023-06-07T23:13:01.416Z,98947.44
2023-06-07T23:15:27.845Z,98946.28
2023-06-07T23:17:54.457Z,98945.22
2023-06-07T23:20:21.306Z,98950.97
2023-06-07T23:22:47.880Z,98951.28
2023-06-07T23:25:14.300Z,98949.03
2023-06-07T23:27:41.441Z,98949.75
2023-06-07T23:30:08.240Z,98951.81
2023-06-07T23:32:35.297Z,98947.09
2023-06-07T23:35:01.771Z,98944.63
2023-06-07T23:37:28.241Z,98944.31
2023-06-07T23:39:54.706Z,98949.78
2023-06-07T23:42:21.145Z,98936.78
2023-06-07T23:44:48.090Z,98941.38
2023-06-07T23:47:15.228Z,98944.03
2023-06-07T23:49:41.595Z,98943.81
2023-06-07T23:52:09.329Z,98937.28
2023-06-07T23:54:36.160Z,98937.88
2023-06-07T23:57:02.651Z,98940.47
2023-06-07T23:59:30.079Z,98940.09
